sensor_id;sensor_type;location;lat;lon;timestamp;temperature;humidity
64493;DHT22;50868;24.150;-110.320;2023-07-28T00:00:53;47.00;79.40
64493;DHT22;50868;24.150;-110.320;2023-07-28T00:03:20;47.60;74.10
64493;DHT22;50868;24.150;-110.320;2023-07-28T00:05:47;49.50;72.30
64493;DHT22;50868;24.150;-110.320;2023-07-28T00:08:14;49.80;71.60
64493;DHT22;50868;24.150;-110.320;2023-07-28T00:10:42;50.00;69.10
64493;DHT22;50868;24.150;-110.320;2023-07-28T00:13:09;50.30;67.30
64493;DHT22;50868;24.150;-110.320;2023-07-28T00:15:36;50.50;68.50
64493;DHT22;50868;24.150;-110.320;2023-07-28T00:18:04;50.30;66.70
64493;DHT22;50868;24.150;-110.320;2023-07-28T00:20:31;49.80;71.10
64493;DHT22;50868;24.150;-110.320;2023-07-28T00:22:58;51.00;67.90
64493;DHT22;50868;24.150;-110.320;2023-07-28T00:25:25;51.40;66.10
64493;DHT22;50868;24.150;-110.320;2023-07-28T00:27:52;51.00;67.30
64493;DHT22;50868;24.150;-110.320;2023-07-28T00:30:19;49.90;65.70
64493;DHT22;50868;24.150;-110.320;2023-07-28T00:32:46;50.20;67.20
64493;DHT22;50868;24.150;-110.320;2023-07-28T00:35:13;50.80;67.70
64493;DHT22;50868;24.150;-110.320;2023-07-28T00:37:40;51.30;66.80
64493;DHT22;50868;24.150;-110.320;2023-07-28T00:40:08;49.40;69.70
64493;DHT22;50868;24.150;-110.320;2023-07-28T00:42:35;50.80;66.20
64493;DHT22;50868;24.150;-110.320;2023-07-28T00:45:02;51.10;65.80
64493;DHT22;50868;24.150;-110.320;2023-07-28T00:47:29;51.50;64.40
64493;DHT22;50868;24.150;-110.320;2023-07-28T00:49:57;51.60;66.50
64493;DHT22;50868;24.150;-110.320;2023-07-28T00:52:24;50.20;65.70
64493;DHT22;50868;24.150;-110.320;2023-07-28T00:54:51;50.80;64.10
64493;DHT22;50868;24.150;-110.320;2023-07-28T00:57:18;51.00;62.00
64493;DHT22;50868;24.150;-110.320;2023-07-28T00:59:46;50.60;62.20
64493;DHT22;50868;24.150;-110.320;2023-07-28T01:02:13;49.80;62.70
64493;DHT22;50868;24.150;-110.320;2023-07-28T01:04:40;49.40;66.90
64493;DHT22;50868;24.150;-110.320;2023-07-28T01:07:23;48.50;65.10
64493;DHT22;50868;24.150;-110.320;2023-07-28T01:10:10;48.60;64.70
64493;DHT22;50868;24.150;-110.320;2023-07-28T01:12:38;48.10;64.70
64493;DHT22;50868;24.150;-110.320;2023-07-28T01:15:06;48.30;66.00
64493;DHT22;50868;24.150;-110.320;2023-07-28T01:17:33;46.40;69.20
64493;DHT22;50868;24.150;-110.320;2023-07-28T01:20:01;45.80;69.30
64493;DHT22;50868;24.150;-110.320;2023-07-28T01:27:34;45.50;68.30
64493;DHT22;50868;24.150;-110.320;2023-07-28T01:30:01;45.90;70.60
64493;DHT22;50868;24.150;-110.320;2023-07-28T01:32:28;46.00;70.10
64493;DHT22;50868;24.150;-110.320;2023-07-28T01:34:55;45.20;71.50
64493;DHT22;50868;24.150;-110.320;2023-07-28T01:37:22;44.40;75.30
64493;DHT22;50868;24.150;-110.320;2023-07-28T01:39:49;44.50;76.80
64493;DHT22;50868;24.150;-110.320;2023-07-28T01:42:16;43.10;78.10
64493;DHT22;50868;24.150;-110.320;2023-07-28T01:44:43;42.90;77.80
64493;DHT22;50868;24.150;-110.320;2023-07-28T01:47:10;42.20;79.30
64493;DHT22;50868;24.150;-110.320;2023-07-28T01:49:37;40.80;82.80
64493;DHT22;50868;24.150;-110.320;2023-07-28T01:52:04;40.90;83.10
64493;DHT22;50868;24.150;-110.320;2023-07-28T01:54:32;40.50;84.40
64493;DHT22;50868;24.150;-110.320;2023-07-28T01:56:59;40.30;78.80
64493;DHT22;50868;24.150;-110.320;2023-07-28T01:59:26;39.70;80.30
64493;DHT22;50868;24.150;-110.320;2023-07-28T02:01:53;39.00;79.90
64493;DHT22;50868;24.150;-110.320;2023-07-28T02:04:20;38.40;80.70
64493;DHT22;50868;24.150;-110.320;2023-07-28T02:06:47;37.90;81.70
64493;DHT22;50868;24.150;-110.320;2023-07-28T02:09:14;37.40;83.00
64493;DHT22;50868;24.150;-110.320;2023-07-28T02:11:41;37.00;84.30
64493;DHT22;50868;24.150;-110.320;2023-07-28T02:14:08;36.50;85.80
64493;DHT22;50868;24.150;-110.320;2023-07-28T02:16:35;36.40;86.70
64493;DHT22;50868;24.150;-110.320;2023-07-28T02:19:02;36.10;86.60
64493;DHT22;50868;24.150;-110.320;2023-07-28T02:21:29;35.60;88.50
64493;DHT22;50868;24.150;-110.320;2023-07-28T02:23:56;35.60;88.30
64493;DHT22;50868;24.150;-110.320;2023-07-28T02:26:23;35.40;88.90
64493;DHT22;50868;24.150;-110.320;2023-07-28T02:28:50;35.30;89.20
64493;DHT22;50868;24.150;-110.320;2023-07-28T02:31:17;34.90;90.20
64493;DHT22;50868;24.150;-110.320;2023-07-28T02:33:44;34.70;90.40
64493;DHT22;50868;24.150;-110.320;2023-07-28T02:36:11;34.70;90.50
64493;DHT22;50868;24.150;-110.320;2023-07-28T02:38:38;34.50;90.80
64493;DHT22;50868;24.150;-110.320;2023-07-28T02:41:05;34.40;91.00
64493;DHT22;50868;24.150;-110.320;2023-07-28T02:43:33;34.30;91.00
64493;DHT22;50868;24.150;-110.320;2023-07-28T02:46:00;34.50;91.00
64493;DHT22;50868;24.150;-110.320;2023-07-28T02:48:27;34.40;91.00
64493;DHT22;50868;24.150;-110.320;2023-07-28T02:50:54;34.40;91.10
64493;DHT22;50868;24.150;-110.320;2023-07-28T02:53:22;34.20;91.40
64493;DHT22;50868;24.150;-110.320;2023-07-28T02:55:49;34.00;91.80
64493;DHT22;50868;24.150;-110.320;2023-07-28T02:58:16;33.90;92.00
64493;DHT22;50868;24.150;-110.320;2023-07-28T03:00:44;33.80;92.20
64493;DHT22;50868;24.150;-110.320;2023-07-28T03:03:13;33.60;92.50
64493;DHT22;50868;24.150;-110.320;2023-07-28T03:05:40;33.50;92.80
64493;DHT22;50868;24.150;-110.320;2023-07-28T03:08:07;33.60;92.70
64493;DHT22;50868;24.150;-110.320;2023-07-28T03:10:34;33.70;92.90
64493;DHT22;50868;24.150;-110.320;2023-07-28T03:13:01;33.60;93.20
64493;DHT22;50868;24.150;-110.320;2023-07-28T03:15:28;33.50;93.20
64493;DHT22;50868;24.150;-110.320;2023-07-28T03:17:55;33.40;93.50
64493;DHT22;50868;24.150;-110.320;2023-07-28T03:20:22;33.30;93.60
64493;DHT22;50868;24.150;-110.320;2023-07-28T03:22:50;33.40;93.60
64493;DHT22;50868;24.150;-110.320;2023-07-28T03:25:17;33.30;93.80
64493;DHT22;50868;24.150;-110.320;2023-07-28T03:27:44;33.30;93.90
64493;DHT22;50868;24.150;-110.320;2023-07-28T03:30:11;33.30;93.90
64493;DHT22;50868;24.150;-110.320;2023-07-28T03:32:38;33.20;93.90
64493;DHT22;50868;24.150;-110.320;2023-07-28T03:35:06;33.20;94.10
64493;DHT22;50868;24.150;-110.320;2023-07-28T03:37:34;33.20;94.20
64493;DHT22;50868;24.150;-110.320;2023-07-28T03:40:01;33.10;94.30
64493;DHT22;50868;24.150;-110.320;2023-07-28T03:42:28;33.00;94.40
64493;DHT22;50868;24.150;-110.320;2023-07-28T03:44:55;33.10;94.50
64493;DHT22;50868;24.150;-110.320;2023-07-28T03:47:22;33.10;94.60
64493;DHT22;50868;24.150;-110.320;2023-07-28T03:49:50;32.80;95.00
64493;DHT22;50868;24.150;-110.320;2023-07-28T03:52:17;32.80;95.20
64493;DHT22;50868;24.150;-110.320;2023-07-28T03:54:44;32.70;95.10
64493;DHT22;50868;24.150;-110.320;2023-07-28T03:57:11;32.60;95.30
64493;DHT22;50868;24.150;-110.320;2023-07-28T03:59:38;32.50;95.40
64493;DHT22;50868;24.150;-110.320;2023-07-28T04:02:05;32.40;95.70
64493;DHT22;50868;24.150;-110.320;2023-07-28T04:04:32;32.20;96.00
64493;DHT22;50868;24.150;-110.320;2023-07-28T04:06:59;32.20;96.20
64493;DHT22;50868;24.150;-110.320;2023-07-28T04:09:27;32.30;96.00
64493;DHT22;50868;24.150;-110.320;2023-07-28T04:11:54;32.20;96.20
64493;DHT22;50868;24.150;-110.320;2023-07-28T04:14:21;32.20;96.00
64493;DHT22;50868;24.150;-110.320;2023-07-28T04:16:48;32.10;96.10
64493;DHT22;50868;24.150;-110.320;2023-07-28T04:19:15;32.10;96.10
64493;DHT22;50868;24.150;-110.320;2023-07-28T04:21:43;32.00;96.40
64493;DHT22;50868;24.150;-110.320;2023-07-28T04:24:10;31.90;96.20
64493;DHT22;50868;24.150;-110.320;2023-07-28T04:26:37;32.10;96.40
64493;DHT22;50868;24.150;-110.320;2023-07-28T04:29:04;31.90;96.60
64493;DHT22;50868;24.150;-110.320;2023-07-28T04:31:31;31.80;96.80
64493;DHT22;50868;24.150;-110.320;2023-07-28T04:33:59;31.90;97.20
64493;DHT22;50868;24.150;-110.320;2023-07-28T04:36:26;31.90;96.90
64493;DHT22;50868;24.150;-110.320;2023-07-28T04:38:53;31.90;96.90
64493;DHT22;50868;24.150;-110.320;2023-07-28T04:41:20;31.90;96.80
64493;DHT22;50868;24.150;-110.320;2023-07-28T04:43:48;31.70;97.10
64493;DHT22;50868;24.150;-110.320;2023-07-28T04:46:15;31.50;97.20
64493;DHT22;50868;24.150;-110.320;2023-07-28T04:48:42;31.40;97.50
64493;DHT22;50868;24.150;-110.320;2023-07-28T04:51:09;31.50;97.40
64493;DHT22;50868;24.150;-110.320;2023-07-28T04:53:36;31.60;97.30
64493;DHT22;50868;24.150;-110.320;2023-07-28T04:56:03;31.50;97.40
64493;DHT22;50868;24.150;-110.320;2023-07-28T04:58:30;31.50;97.30
64493;DHT22;50868;24.150;-110.320;2023-07-28T05:00:57;31.60;97.10
64493;DHT22;50868;24.150;-110.320;2023-07-28T05:03:25;31.60;97.40
64493;DHT22;50868;24.150;-110.320;2023-07-28T05:05:52;31.70;97.30
64493;DHT22;50868;24.150;-110.320;2023-07-28T05:08:19;31.60;97.20
64493;DHT22;50868;24.150;-110.320;2023-07-28T05:10:46;31.60;97.30
64493;DHT22;50868;24.150;-110.320;2023-07-28T05:13:13;31.60;97.60
64493;DHT22;50868;24.150;-110.320;2023-07-28T05:15:40;31.50;97.50
64493;DHT22;50868;24.150;-110.320;2023-07-28T05:18:07;31.50;97.50
64493;DHT22;50868;24.150;-110.320;2023-07-28T05:20:34;31.50;97.30
64493;DHT22;50868;24.150;-110.320;2023-07-28T05:23:01;31.50;97.00
64493;DHT22;50868;24.150;-110.320;2023-07-28T05:25:28;31.50;96.60
64493;DHT22;50868;24.150;-110.320;2023-07-28T05:27:55;31.40;96.40
64493;DHT22;50868;24.150;-110.320;2023-07-28T05:30:22;31.40;96.50
64493;DHT22;50868;24.150;-110.320;2023-07-28T05:32:49;31.30;97.00
64493;DHT22;50868;24.150;-110.320;2023-07-28T05:35:16;31.30;97.20
64493;DHT22;50868;24.150;-110.320;2023-07-28T05:37:43;31.40;97.30
64493;DHT22;50868;24.150;-110.320;2023-07-28T05:40:11;31.30;97.20
64493;DHT22;50868;24.150;-110.320;2023-07-28T05:42:39;31.30;97.40
64493;DHT22;50868;24.150;-110.320;2023-07-28T05:45:06;31.20;97.80
64493;DHT22;50868;24.150;-110.320;2023-07-28T05:47:34;31.20;97.20
64493;DHT22;50868;24.150;-110.320;2023-07-28T05:50:01;31.20;96.90
64493;DHT22;50868;24.150;-110.320;2023-07-28T05:52:28;31.20;96.70
64493;DHT22;50868;24.150;-110.320;2023-07-28T05:54:55;31.20;96.70
64493;DHT22;50868;24.150;-110.320;2023-07-28T05:57:22;31.20;96.50
64493;DHT22;50868;24.150;-110.320;2023-07-28T05:59:49;31.10;96.60
64493;DHT22;50868;24.150;-110.320;2023-07-28T06:02:16;31.10;96.70
64493;DHT22;50868;24.150;-110.320;2023-07-28T06:04:43;31.00;97.20
64493;DHT22;50868;24.150;-110.320;2023-07-28T06:07:10;31.00;97.20
64493;DHT22;50868;24.150;-110.320;2023-07-28T06:09:38;31.10;97.30
64493;DHT22;50868;24.150;-110.320;2023-07-28T06:12:05;31.00;97.30
64493;DHT22;50868;24.150;-110.320;2023-07-28T06:14:33;30.90;97.50
64493;DHT22;50868;24.150;-110.320;2023-07-28T06:17:00;30.90;97.40
64493;DHT22;50868;24.150;-110.320;2023-07-28T06:19:27;30.90;96.90
64493;DHT22;50868;24.150;-110.320;2023-07-28T06:21:54;30.80;96.30
64493;DHT22;50868;24.150;-110.320;2023-07-28T06:24:21;30.80;96.20
64493;DHT22;50868;24.150;-110.320;2023-07-28T06:26:48;30.90;96.10
64493;DHT22;50868;24.150;-110.320;2023-07-28T06:29:16;30.80;96.60
64493;DHT22;50868;24.150;-110.320;2023-07-28T06:31:43;30.80;96.90
64493;DHT22;50868;24.150;-110.320;2023-07-28T06:34:10;30.70;97.60
64493;DHT22;50868;24.150;-110.320;2023-07-28T06:36:37;30.70;97.50
64493;DHT22;50868;24.150;-110.320;2023-07-28T06:39:04;30.70;97.10
64493;DHT22;50868;24.150;-110.320;2023-07-28T06:41:31;30.60;96.90
64493;DHT22;50868;24.150;-110.320;2023-07-28T06:43:58;30.50;96.40
64493;DHT22;50868;24.150;-110.320;2023-07-28T06:46:26;30.60;95.50
64493;DHT22;50868;24.150;-110.320;2023-07-28T06:48:53;30.60;95.20
64493;DHT22;50868;24.150;-110.320;2023-07-28T06:51:20;30.60;95.40
64493;DHT22;50868;24.150;-110.320;2023-07-28T06:53:47;30.50;95.60
64493;DHT22;50868;24.150;-110.320;2023-07-28T06:56:14;30.50;95.70
64493;DHT22;50868;24.150;-110.320;2023-07-28T06:58:41;30.40;95.70
64493;DHT22;50868;24.150;-110.320;2023-07-28T07:01:09;30.40;95.10
64493;DHT22;50868;24.150;-110.320;2023-07-28T07:03:37;30.40;94.90
64493;DHT22;50868;24.150;-110.320;2023-07-28T07:06:04;30.30;95.10
64493;DHT22;50868;24.150;-110.320;2023-07-28T07:08:31;30.30;95.30
64493;DHT22;50868;24.150;-110.320;2023-07-28T07:10:59;30.40;95.20
64493;DHT22;50868;24.150;-110.320;2023-07-28T07:13:27;30.30;95.30
64493;DHT22;50868;24.150;-110.320;2023-07-28T07:15:54;30.20;95.40
64493;DHT22;50868;24.150;-110.320;2023-07-28T07:18:20;30.10;95.80
64493;DHT22;50868;24.150;-110.320;2023-07-28T07:20:47;30.10;95.50
64493;DHT22;50868;24.150;-110.320;2023-07-28T07:23:15;30.20;95.50
64493;DHT22;50868;24.150;-110.320;2023-07-28T07:25:42;30.20;95.40
64493;DHT22;50868;24.150;-110.320;2023-07-28T07:28:08;30.20;95.50
64493;DHT22;50868;24.150;-110.320;2023-07-28T07:30:35;30.20;95.50
64493;DHT22;50868;24.150;-110.320;2023-07-28T07:33:03;30.20;95.40
64493;DHT22;50868;24.150;-110.320;2023-07-28T07:35:30;30.00;95.70
64493;DHT22;50868;24.150;-110.320;2023-07-28T07:37:57;30.00;95.80
64493;DHT22;50868;24.150;-110.320;2023-07-28T07:40:24;30.20;95.20
64493;DHT22;50868;24.150;-110.320;2023-07-28T07:42:51;30.20;95.20
64493;DHT22;50868;24.150;-110.320;2023-07-28T07:45:18;30.20;95.30
64493;DHT22;50868;24.150;-110.320;2023-07-28T07:47:45;30.00;95.60
64493;DHT22;50868;24.150;-110.320;2023-07-28T07:50:12;30.10;95.90
64493;DHT22;50868;24.150;-110.320;2023-07-28T07:52:40;30.10;95.80
64493;DHT22;50868;24.150;-110.320;2023-07-28T07:55:08;30.10;96.00
64493;DHT22;50868;24.150;-110.320;2023-07-28T07:57:36;30.10;96.00
64493;DHT22;50868;24.150;-110.320;2023-07-28T08:00:03;30.00;96.10
64493;DHT22;50868;24.150;-110.320;2023-07-28T08:02:31;30.00;96.20
64493;DHT22;50868;24.150;-110.320;2023-07-28T08:04:58;30.00;96.40
64493;DHT22;50868;24.150;-110.320;2023-07-28T08:07:25;30.10;96.00
64493;DHT22;50868;24.150;-110.320;2023-07-28T08:09:53;30.10;95.70
64493;DHT22;50868;24.150;-110.320;2023-07-28T08:12:20;30.00;95.40
64493;DHT22;50868;24.150;-110.320;2023-07-28T08:14:47;30.00;95.10
64493;DHT22;50868;24.150;-110.320;2023-07-28T08:17:14;30.10;94.80
64493;DHT22;50868;24.150;-110.320;2023-07-28T08:19:41;30.10;94.60
64493;DHT22;50868;24.150;-110.320;2023-07-28T08:22:08;29.90;94.80
64493;DHT22;50868;24.150;-110.320;2023-07-28T08:24:35;30.00;94.30
64493;DHT22;50868;24.150;-110.320;2023-07-28T08:27:02;29.90;94.60
64493;DHT22;50868;24.150;-110.320;2023-07-28T08:29:30;30.00;94.80
64493;DHT22;50868;24.150;-110.320;2023-07-28T08:31:57;30.00;95.00
64493;DHT22;50868;24.150;-110.320;2023-07-28T08:34:24;30.00;95.30
64493;DHT22;50868;24.150;-110.320;2023-07-28T08:36:51;30.10;95.40
64493;DHT22;50868;24.150;-110.320;2023-07-28T08:39:19;30.00;95.60
64493;DHT22;50868;24.150;-110.320;2023-07-28T08:41:46;30.10;95.50
64493;DHT22;50868;24.150;-110.320;2023-07-28T08:44:14;30.10;95.90
64493;DHT22;50868;24.150;-110.320;2023-07-28T08:46:42;30.00;96.20
64493;DHT22;50868;24.150;-110.320;2023-07-28T08:49:09;30.10;96.10
64493;DHT22;50868;24.150;-110.320;2023-07-28T08:51:41;30.10;96.00
64493;DHT22;50868;24.150;-110.320;2023-07-28T08:54:09;30.20;95.70
64493;DHT22;50868;24.150;-110.320;2023-07-28T08:56:36;30.20;95.80
64493;DHT22;50868;24.150;-110.320;2023-07-28T08:59:03;30.00;95.80
64493;DHT22;50868;24.150;-110.320;2023-07-28T09:01:31;30.10;96.20
64493;DHT22;50868;24.150;-110.320;2023-07-28T09:03:58;30.10;96.50
64493;DHT22;50868;24.150;-110.320;2023-07-28T09:06:30;30.00;97.20
64493;DHT22;50868;24.150;-110.320;2023-07-28T09:08:57;29.90;97.50
64493;DHT22;50868;24.150;-110.320;2023-07-28T09:11:25;29.90;97.70
64493;DHT22;50868;24.150;-110.320;2023-07-28T09:13:56;29.90;97.80
64493;DHT22;50868;24.150;-110.320;2023-07-28T09:16:27;29.90;98.10
64493;DHT22;50868;24.150;-110.320;2023-07-28T09:19:06;30.00;98.20
64493;DHT22;50868;24.150;-110.320;2023-07-28T09:21:33;29.90;98.50
64493;DHT22;50868;24.150;-110.320;2023-07-28T09:24:05;29.90;98.20
64493;DHT22;50868;24.150;-110.320;2023-07-28T09:26:45;29.70;97.90
64493;DHT22;50868;24.150;-110.320;2023-07-28T09:29:16;29.60;97.10
64493;DHT22;50868;24.150;-110.320;2023-07-28T09:31:44;29.60;97.30
64493;DHT22;50868;24.150;-110.320;2023-07-28T09:34:12;29.60;98.50
64493;DHT22;50868;24.150;-110.320;2023-07-28T09:36:41;29.70;98.80
64493;DHT22;50868;24.150;-110.320;2023-07-28T09:39:08;29.60;99.30
64493;DHT22;50868;24.150;-110.320;2023-07-28T09:41:38;29.60;99.50
64493;DHT22;50868;24.150;-110.320;2023-07-28T09:44:05;29.60;99.60
64493;DHT22;50868;24.150;-110.320;2023-07-28T09:46:34;29.60;99.50
64493;DHT22;50868;24.150;-110.320;2023-07-28T09:49:05;29.70;99.40
64493;DHT22;50868;24.150;-110.320;2023-07-28T09:51:34;29.60;99.50
64493;DHT22;50868;24.150;-110.320;2023-07-28T09:54:11;29.60;99.50
64493;DHT22;50868;24.150;-110.320;2023-07-28T09:56:39;29.60;99.60
64493;DHT22;50868;24.150;-110.320;2023-07-28T09:59:11;29.50;99.80
64493;DHT22;50868;24.150;-110.320;2023-07-28T10:01:40;29.40;99.90
64493;DHT22;50868;24.150;-110.320;2023-07-28T10:04:07;29.30;99.90
64493;DHT22;50868;24.150;-110.320;2023-07-28T10:06:35;29.30;99.90
64493;DHT22;50868;24.150;-110.320;2023-07-28T10:09:05;29.30;99.90
64493;DHT22;50868;24.150;-110.320;2023-07-28T10:11:32;29.30;99.90
64493;DHT22;50868;24.150;-110.320;2023-07-28T10:14:00;29.20;99.90
64493;DHT22;50868;24.150;-110.320;2023-07-28T10:16:31;29.30;99.90
64493;DHT22;50868;24.150;-110.320;2023-07-28T10:19:04;29.30;99.90
64493;DHT22;50868;24.150;-110.320;2023-07-28T10:21:31;29.20;99.90
64493;DHT22;50868;24.150;-110.320;2023-07-28T10:23:59;29.20;99.90
64493;DHT22;50868;24.150;-110.320;2023-07-28T10:26:36;29.20;99.90
64493;DHT22;50868;24.150;-110.320;2023-07-28T10:29:14;29.10;99.90
64493;DHT22;50868;24.150;-110.320;2023-07-28T10:31:59;29.20;99.90
64493;DHT22;50868;24.150;-110.320;2023-07-28T10:34:26;29.20;99.90
64493;DHT22;50868;24.150;-110.320;2023-07-28T10:36:59;29.20;99.90
64493;DHT22;50868;24.150;-110.320;2023-07-28T10:39:26;29.20;99.90
64493;DHT22;50868;24.150;-110.320;2023-07-28T10:44:33;29.20;99.90
64493;DHT22;50868;24.150;-110.320;2023-07-28T10:47:01;29.10;99.90
64493;DHT22;50868;24.150;-110.320;2023-07-28T10:49:29;29.10;99.90
64493;DHT22;50868;24.150;-110.320;2023-07-28T10:51:56;29.10;99.90
64493;DHT22;50868;24.150;-110.320;2023-07-28T10:54:23;29.00;99.90
64493;DHT22;50868;24.150;-110.320;2023-07-28T10:56:50;29.00;99.90
64493;DHT22;50868;24.150;-110.320;2023-07-28T10:59:17;29.10;99.90
64493;DHT22;50868;24.150;-110.320;2023-07-28T11:01:44;29.00;99.90
64493;DHT22;50868;24.150;-110.320;2023-07-28T11:04:12;29.00;99.90
64493;DHT22;50868;24.150;-110.320;2023-07-28T11:06:44;29.00;99.90
64493;DHT22;50868;24.150;-110.320;2023-07-28T11:09:13;29.10;99.90
64493;DHT22;50868;24.150;-110.320;2023-07-28T11:11:41;29.10;99.90
64493;DHT22;50868;24.150;-110.320;2023-07-28T11:14:11;29.20;99.90
64493;DHT22;50868;24.150;-110.320;2023-07-28T11:16:40;29.10;99.90
64493;DHT22;50868;24.150;-110.320;2023-07-28T11:19:25;29.10;99.90
64493;DHT22;50868;24.150;-110.320;2023-07-28T11:21:54;29.00;99.90
64493;DHT22;50868;24.150;-110.320;2023-07-28T11:24:21;28.90;99.90
64493;DHT22;50868;24.150;-110.320;2023-07-28T11:26:50;28.90;99.90
64493;DHT22;50868;24.150;-110.320;2023-07-28T11:29:19;28.90;99.90
64493;DHT22;50868;24.150;-110.320;2023-07-28T11:31:47;29.10;99.90
64493;DHT22;50868;24.150;-110.320;2023-07-28T11:34:18;29.20;99.90
64493;DHT22;50868;24.150;-110.320;2023-07-28T11:36:45;29.10;99.90
64493;DHT22;50868;24.150;-110.320;2023-07-28T11:39:13;29.00;99.90
64493;DHT22;50868;24.150;-110.320;2023-07-28T11:41:42;29.10;99.90
64493;DHT22;50868;24.150;-110.320;2023-07-28T11:44:10;29.00;99.90
64493;DHT22;50868;24.150;-110.320;2023-07-28T11:46:41;28.90;99.90
64493;DHT22;50868;24.150;-110.320;2023-07-28T11:49:18;28.90;99.90
64493;DHT22;50868;24.150;-110.320;2023-07-28T11:51:53;28.80;99.90
64493;DHT22;50868;24.150;-110.320;2023-07-28T11:54:25;28.80;99.90
64493;DHT22;50868;24.150;-110.320;2023-07-28T11:56:57;29.00;99.90
64493;DHT22;50868;24.150;-110.320;2023-07-28T11:59:24;28.80;99.90
64493;DHT22;50868;24.150;-110.320;2023-07-28T12:02:00;28.70;99.90
64493;DHT22;50868;24.150;-110.320;2023-07-28T12:04:29;28.70;99.90
64493;DHT22;50868;24.150;-110.320;2023-07-28T12:09:46;28.90;99.90
64493;DHT22;50868;24.150;-110.320;2023-07-28T12:12:46;28.90;99.60
64493;DHT22;50868;24.150;-110.320;2023-07-28T12:15:26;28.80;99.60
64493;DHT22;50868;24.150;-110.320;2023-07-28T12:18:16;28.90;99.40
64493;DHT22;50868;24.150;-110.320;2023-07-28T12:20:46;28.80;99.70
64493;DHT22;50868;24.150;-110.320;2023-07-28T12:23:18;28.70;99.80
64493;DHT22;50868;24.150;-110.320;2023-07-28T12:25:46;28.60;99.90
64493;DHT22;50868;24.150;-110.320;2023-07-28T12:28:13;28.70;99.90
64493;DHT22;50868;24.150;-110.320;2023-07-28T12:30:40;28.80;99.70
64493;DHT22;50868;24.150;-110.320;2023-07-28T12:33:08;29.00;99.10
64493;DHT22;50868;24.150;-110.320;2023-07-28T12:35:35;29.00;99.10
64493;DHT22;50868;24.150;-110.320;2023-07-28T12:38:04;28.90;99.30
64493;DHT22;50868;24.150;-110.320;2023-07-28T12:40:32;28.80;99.10
64493;DHT22;50868;24.150;-110.320;2023-07-28T12:43:02;28.80;99.00
64493;DHT22;50868;24.150;-110.320;2023-07-28T12:45:29;28.90;98.90
64493;DHT22;50868;24.150;-110.320;2023-07-28T12:47:56;28.90;99.50
64493;DHT22;50868;24.150;-110.320;2023-07-28T12:50:24;28.90;99.80
64493;DHT22;50868;24.150;-110.320;2023-07-28T12:52:51;28.90;99.90
64493;DHT22;50868;24.150;-110.320;2023-07-28T12:55:18;28.80;99.90
64493;DHT22;50868;24.150;-110.320;2023-07-28T12:57:46;28.80;99.90
64493;DHT22;50868;24.150;-110.320;2023-07-28T13:00:16;28.80;99.90
64493;DHT22;50868;24.150;-110.320;2023-07-28T13:02:45;28.80;99.90
64493;DHT22;50868;24.150;-110.320;2023-07-28T13:05:13;29.00;99.90
64493;DHT22;50868;24.150;-110.320;2023-07-28T13:07:41;28.90;99.90
64493;DHT22;50868;24.150;-110.320;2023-07-28T13:10:10;28.90;99.90
64493;DHT22;50868;24.150;-110.320;2023-07-28T13:12:38;29.00;99.90
64493;DHT22;50868;24.150;-110.320;2023-07-28T13:15:06;29.00;99.90
64493;DHT22;50868;24.150;-110.320;2023-07-28T13:17:33;29.00;99.90
64493;DHT22;50868;24.150;-110.320;2023-07-28T13:20:00;29.10;99.90
64493;DHT22;50868;24.150;-110.320;2023-07-28T13:22:27;29.20;99.90
64493;DHT22;50868;24.150;-110.320;2023-07-28T13:24:54;29.40;99.90
64493;DHT22;50868;24.150;-110.320;2023-07-28T13:27:21;29.30;99.90
64493;DHT22;50868;24.150;-110.320;2023-07-28T13:29:48;29.30;99.90
64493;DHT22;50868;24.150;-110.320;2023-07-28T13:32:23;29.30;99.90
64493;DHT22;50868;24.150;-110.320;2023-07-28T13:34:51;29.40;99.60
64493;DHT22;50868;24.150;-110.320;2023-07-28T13:37:21;29.60;99.50
64493;DHT22;50868;24.150;-110.320;2023-07-28T13:39:48;29.60;99.10
64493;DHT22;50868;24.150;-110.320;2023-07-28T13:42:15;29.60;99.00
64493;DHT22;50868;24.150;-110.320;2023-07-28T13:44:43;29.80;98.60
64493;DHT22;50868;24.150;-110.320;2023-07-28T13:47:13;29.80;98.90
64493;DHT22;50868;24.150;-110.320;2023-07-28T13:49:40;29.90;99.10
64493;DHT22;50868;24.150;-110.320;2023-07-28T13:52:07;29.90;99.30
64493;DHT22;50868;24.150;-110.320;2023-07-28T13:54:34;29.90;99.00
64493;DHT22;50868;24.150;-110.320;2023-07-28T13:57:02;30.00;98.70
64493;DHT22;50868;24.150;-110.320;2023-07-28T13:59:29;30.00;98.90
64493;DHT22;50868;24.150;-110.320;2023-07-28T14:01:56;30.10;98.60
64493;DHT22;50868;24.150;-110.320;2023-07-28T14:04:24;30.20;97.10
64493;DHT22;50868;24.150;-110.320;2023-07-28T14:06:51;30.30;97.00
64493;DHT22;50868;24.150;-110.320;2023-07-28T14:09:18;30.30;97.30
64493;DHT22;50868;24.150;-110.320;2023-07-28T14:11:46;30.40;97.30
64493;DHT22;50868;24.150;-110.320;2023-07-28T14:14:13;30.40;97.40
64493;DHT22;50868;24.150;-110.320;2023-07-28T14:16:40;30.50;96.70
64493;DHT22;50868;24.150;-110.320;2023-07-28T14:19:09;30.70;96.30
64493;DHT22;50868;24.150;-110.320;2023-07-28T14:21:36;30.80;94.70
64493;DHT22;50868;24.150;-110.320;2023-07-28T14:24:05;30.70;95.30
64493;DHT22;50868;24.150;-110.320;2023-07-28T14:26:33;30.50;95.10
64493;DHT22;50868;24.150;-110.320;2023-07-28T14:29:00;30.80;93.90
64493;DHT22;50868;24.150;-110.320;2023-07-28T14:31:27;30.90;93.80
64493;DHT22;50868;24.150;-110.320;2023-07-28T14:33:54;31.00;92.80
64493;DHT22;50868;24.150;-110.320;2023-07-28T14:36:21;31.10;91.80
64493;DHT22;50868;24.150;-110.320;2023-07-28T14:38:48;31.20;91.20
64493;DHT22;50868;24.150;-110.320;2023-07-28T14:41:15;31.20;91.50
64493;DHT22;50868;24.150;-110.320;2023-07-28T14:43:42;31.00;91.50
64493;DHT22;50868;24.150;-110.320;2023-07-28T14:46:09;31.30;90.90
64493;DHT22;50868;24.150;-110.320;2023-07-28T14:48:36;31.40;90.60
64493;DHT22;50868;24.150;-110.320;2023-07-28T14:51:03;31.40;91.20
64493;DHT22;50868;24.150;-110.320;2023-07-28T14:53:32;31.50;91.60
64493;DHT22;50868;24.150;-110.320;2023-07-28T14:56:00;31.70;91.20
64493;DHT22;50868;24.150;-110.320;2023-07-28T14:58:29;31.80;91.00
64493;DHT22;50868;24.150;-110.320;2023-07-28T15:00:56;31.90;91.00
64493;DHT22;50868;24.150;-110.320;2023-07-28T15:03:28;31.80;91.00